Time;durP1;ratioP1;P1;durP2;ratioP2;P2;SDS_P1;SDS_P2;PMS_P1;PMS_P2;Temp;Humidity;BMP_temperature;BMP_pressure;BME280_temperature;BME280_humidity;BME280_pressure;Samples;Min_cycle;Max_cycle;Signal;HPM_P1;HPM_P2
2022/11/23 00:01:22;;;;;;;12.45;8.20;;;;;;;2.59;65.99;100072.75;1771003;79;21532;-71
2022/11/23 00:03:53;;;;;;;14.10;8.70;;;;;;;2.62;65.92;100080.73;1770248;80;21180;-71
2022/11/23 00:06:20;;;;;;;15.32;8.38;;;;;;;2.65;66.00;100089.53;1781385;80;21085;-72
2022/11/23 00:08:48;;;;;;;12.78;8.43;;;;;;;2.66;66.11;100090.34;1780313;80;21104;-70
2022/11/23 00:11:15;;;;;;;12.45;8.05;;;;;;;2.62;66.11;100091.80;1772008;80;21073;-70
2022/11/23 00:13:44;;;;;;;13.83;9.00;;;;;;;2.64;66.19;100093.20;1775318;79;21070;-70
2022/11/23 00:16:18;;;;;;;13.25;8.30;;;;;;;2.64;66.21;100093.72;1778915;78;21766;-71
2022/11/23 00:18:46;;;;;;;13.00;8.50;;;;;;;2.63;66.23;100090.77;1769288;80;21623;-71
2022/11/23 00:21:15;;;;;;;14.60;8.60;;;;;;;2.64;66.30;100084.50;1775680;78;21053;-70
2022/11/23 00:23:43;;;;;;;12.53;8.53;;;;;;;2.67;66.21;100086.19;1782666;80;21050;-69
2022/11/23 00:26:10;;;;;;;11.28;7.60;;;;;;;2.63;66.11;100082.34;1774297;80;21172;-71
2022/11/23 00:28:39;;;;;;;13.28;8.38;;;;;;;2.57;66.09;100085.88;1767886;80;21086;-71
2022/11/23 00:31:08;;;;;;;13.58;8.65;;;;;;;2.58;66.17;100089.59;1783568;80;21114;-71
2022/11/23 00:33:36;;;;;;;14.38;8.78;;;;;;;2.56;66.05;100091.63;1779291;80;21555;-71
2022/11/23 00:36:11;;;;;;;13.15;8.35;;;;;;;2.56;66.12;100096.09;1762077;80;21183;-71
2022/11/23 00:38:38;;;;;;;12.13;7.47;;;;;;;2.57;66.17;100087.99;1771354;80;21101;-72
2022/11/23 00:41:09;;;;;;;14.35;9.65;;;;;;;2.56;66.26;100086.36;1771833;80;21465;-69
2022/11/23 00:43:37;;;;;;;14.70;8.63;;;;;;;2.63;66.27;100085.50;1773385;80;21061;-70
2022/11/23 00:46:20;;;;;;;15.00;8.70;;;;;;;2.63;66.27;100085.50;1755042;80;21062;-70
2022/11/23 00:48:49;;;;;;;14.10;8.38;;;;;;;2.61;66.48;100090.20;1766024;80;21038;-70
2022/11/23 00:51:20;;;;;;;12.95;8.30;;;;;;;2.60;66.50;100086.76;1783157;79;21563;-71
2022/11/23 00:53:51;;;;;;;13.03;9.00;;;;;;;2.62;66.63;100097.87;1763090;80;21924;-71
2022/11/23 00:56:19;;;;;;;13.18;8.60;;;;;;;2.61;66.76;100096.79;1784205;80;21041;-71
2022/11/23 00:58:53;;;;;;;15.18;9.08;;;;;;;2.62;66.82;100093.92;1784311;80;21081;-71
2022/11/23 01:01:23;;;;;;;15.15;9.08;;;;;;;2.64;66.89;100099.00;1782229;79;21065;-71
2022/11/23 01:03:52;;;;;;;13.58;8.53;;;;;;;2.70;66.97;100094.16;1769285;80;21041;-71
2022/11/23 01:06:25;;;;;;;15.90;9.98;;;;;;;2.76;67.00;100094.61;1783869;80;21016;-71
2022/11/23 01:09:01;;;;;;;14.23;8.33;;;;;;;2.78;67.00;100093.38;1783894;79;21053;-72
2022/11/23 01:11:31;;;;;;;13.83;9.30;;;;;;;2.81;66.85;100096.09;1778786;80;21626;-71
2022/11/23 01:13:57;;;;;;;14.53;9.83;;;;;;;2.78;66.88;100098.65;1780107;80;21027;-71
2022/11/23 01:16:31;;;;;;;13.75;8.30;;;;;;;2.82;66.91;100095.87;1784100;80;21165;-71
2022/11/23 01:19:03;;;;;;;14.55;9.25;;;;;;;2.82;66.80;100101.14;1766115;80;21144;-71
2022/11/23 01:21:31;;;;;;;14.50;9.18;;;;;;;2.81;66.88;100100.86;1764158;80;21105;-71
2022/11/23 01:23:58;;;;;;;13.93;8.60;;;;;;;2.86;66.87;100104.15;1756383;80;21544;-71
2022/11/23 01:26:25;;;;;;;11.83;7.65;;;;;;;2.86;66.74;100107.30;1781154;80;21563;-69
2022/11/23 01:28:52;;;;;;;13.20;7.92;;;;;;;2.84;66.61;100112.01;1768327;80;21517;-69
2022/11/23 01:31:22;;;;;;;13.13;8.40;;;;;;;2.82;66.62;100110.89;1759297;80;21527;-72
2022/11/23 01:33:54;;;;;;;13.08;8.30;;;;;;;2.79;66.73;100110.00;1784996;80;20994;-72
2022/11/23 01:36:21;;;;;;;;;;;;;;;2.77;66.75;100126.57;1786197;80;21470;-73
2022/11/23 01:38:49;;;;;;;14.40;8.00;;;;;;;2.72;66.73;100122.44;1769546;80;20208;-70
2022/11/23 01:41:20;;;;;;;13.43;8.95;;;;;;;2.69;66.86;100128.95;1779335;80;21642;-72
2022/11/23 01:43:48;;;;;;;14.03;9.03;;;;;;;2.68;66.87;100122.59;1765671;80;21033;-70
2022/11/23 01:46:16;;;;;;;13.13;8.83;;;;;;;2.68;67.01;100118.11;1779622;80;21136;-70
2022/11/23 01:49:03;;;;;;;13.40;8.28;;;;;;;2.66;66.93;100120.15;1766850;79;21048;-72
2022/11/23 01:51:34;;;;;;;13.72;8.40;;;;;;;2.64;66.99;100120.89;1753394;81;21045;-71
2022/11/23 01:54:11;;;;;;;13.83;8.55;;;;;;;2.70;67.06;100123.98;1784074;80;21155;-71
2022/11/23 01:56:41;;;;;;;14.55;9.13;;;;;;;2.71;66.92;100128.75;1763337;80;21259;-71
2022/11/23 01:59:10;;;;;;;13.68;8.83;;;;;;;2.67;66.84;100127.58;1784306;80;21050;-72
2022/11/23 02:01:38;;;;;;;12.25;7.95;;;;;;;2.67;66.85;100124.94;1762748;80;21092;-72
2022/11/23 02:04:08;;;;;;;15.03;8.90;;;;;;;2.67;66.87;100121.78;1784247;80;21045;-71
2022/11/23 02:06:35;;;;;;;14.75;9.10;;;;;;;2.68;66.88;100133.13;1731101;81;21002;-72
2022/11/23 02:20:43;;;;;;;17.03;10.67;;;;;;;3.20;66.45;100136.32;1819117;78;22373;-68
2022/11/23 02:23:36;;;;;;;17.30;10.28;;;;;;;3.11;66.22;100141.06;1756059;81;21089;-66
2022/11/23 02:26:10;;;;;;;14.10;9.85;;;;;;;3.01;66.23;100134.97;1734670;81;21296;-66
2022/11/23 02:28:44;;;;;;;16.75;10.32;;;;;;;2.96;66.25;100133.99;1753435;81;20958;-67
2022/11/23 02:31:11;;;;;;;16.60;10.68;;;;;;;2.94;66.27;100134.22;1763918;81;20903;-66
2022/11/23 02:33:40;;;;;;;14.78;9.80;;;;;;;2.92;66.31;100142.05;1761167;81;21047;-67
2022/11/23 02:36:42;;;;;;;16.23;10.32;;;;;;;2.88;66.35;100141.68;1741486;81;21066;-65
2022/11/23 02:39:16;;;;;;;16.75;10.78;;;;;;;2.86;66.42;100145.55;1739226;82;21113;-66
2022/11/23 02:41:47;;;;;;;15.50;9.78;;;;;;;2.81;66.54;100137.78;1739191;82;21005;-66
2022/11/23 02:44:45;;;;;;;16.80;10.23;;;;;;;2.84;66.62;100137.06;1765147;81;21007;-66
2022/11/23 02:47:12;;;;;;;16.37;10.30;;;;;;;2.81;66.65;100136.98;1769133;81;21006;-66
2022/11/23 02:49:40;;;;;;;15.05;10.08;;;;;;;2.80;66.74;100139.33;1767712;81;20927;-66
2022/11/23 02:52:08;;;;;;;17.95;10.93;;;;;;;2.80;66.81;100144.09;1769059;81;21071;-67
2022/11/23 02:54:36;;;;;;;16.77;10.88;;;;;;;2.80;66.89;100153.32;1768372;81;21022;-67
2022/11/23 02:57:05;;;;;;;17.23;9.98;;;;;;;2.80;66.91;100155.16;1769852;81;20887;-66
2022/11/23 02:59:33;;;;;;;17.20;10.63;;;;;;;2.78;66.98;100155.35;1767048;81;21027;-66
2022/11/23 03:02:03;;;;;;;17.50;10.78;;;;;;;2.77;67.04;100158.22;1769867;81;20962;-67
2022/11/23 03:04:31;;;;;;;15.88;9.88;;;;;;;2.73;67.10;100155.20;1754500;81;21145;-67
2022/11/23 03:06:58;;;;;;;17.45;11.08;;;;;;;2.73;67.24;100147.78;1739025;82;20986;-67
2022/11/23 03:09:27;;;;;;;19.07;11.30;;;;;;;2.69;67.22;100155.84;1740951;81;21527;-67
2022/11/23 03:11:53;;;;;;;18.52;11.25;;;;;;;2.69;67.29;100159.27;1739520;82;21021;-67
2022/11/23 03:14:21;;;;;;;19.05;11.43;;;;;;;2.73;67.30;100163.60;1764908;81;20935;-67
2022/11/23 03:16:49;;;;;;;19.27;11.50;;;;;;;2.76;67.33;100156.59;1768649;81;21097;-67
2022/11/23 03:19:17;;;;;;;20.60;12.47;;;;;;;2.76;67.32;100148.67;1769329;81;20992;-67
2022/11/23 03:21:44;;;;;;;19.70;11.33;;;;;;;2.79;67.32;100150.88;1748513;81;21042;-67
2022/11/23 03:24:11;;;;;;;20.52;12.18;;;;;;;2.86;67.31;100151.63;1768949;81;20990;-67
2022/11/23 03:26:38;;;;;;;18.02;11.43;;;;;;;2.87;67.25;100156.42;1768336;81;21033;-68
2022/11/23 03:29:09;;;;;;;15.13;9.05;;;;;;;2.87;67.17;100153.78;1751249;81;21099;-67
2022/11/23 03:31:38;;;;;;;18.45;10.78;;;;;;;2.86;67.16;100148.98;1755148;81;20997;-67
2022/11/23 03:34:06;;;;;;;17.73;10.72;;;;;;;2.88;67.19;100151.43;1757544;81;20990;-66
2022/11/23 03:36:34;;;;;;;19.05;11.40;;;;;;;2.89;67.21;100148.56;1739326;81;21088;-67
2022/11/23 03:39:01;;;;;;;21.87;11.57;;;;;;;2.89;67.13;100147.23;1738509;82;21013;-67
2022/11/23 03:41:29;;;;;;;19.10;11.63;;;;;;;2.88;66.99;100152.75;1761919;81;21148;-67
2022/11/23 03:43:58;;;;;;;20.40;11.75;;;;;;;2.82;66.94;100155.21;1768802;81;21066;-67
2022/11/23 03:46:25;;;;;;;22.70;12.47;;;;;;;2.81;67.02;100156.76;1761918;81;21551;-67
2022/11/23 03:48:52;;;;;;;21.37;11.90;;;;;;;2.81;67.08;100152.80;1767244;81;21501;-67
2022/11/23 03:51:20;;;;;;;20.20;11.53;;;;;;;2.77;67.16;100147.67;1754653;81;20959;-67
2022/11/23 03:53:47;;;;;;;19.98;11.90;;;;;;;2.76;67.26;100148.19;1738170;82;21245;-68
2022/11/23 03:56:14;;;;;;;21.97;12.95;;;;;;;2.79;67.28;100152.20;1760099;81;20995;-66
2022/11/23 03:58:43;;;;;;;23.38;13.30;;;;;;;2.78;67.31;100157.19;1768811;81;21038;-66
2022/11/23 04:01:12;;;;;;;21.05;12.37;;;;;;;2.84;67.41;100158.97;1768943;81;21650;-67
2022/11/23 04:03:39;;;;;;;22.75;12.88;;;;;;;2.82;67.31;100161.00;1769017;81;21623;-67
2022/11/23 04:06:08;;;;;;;19.25;10.82;;;;;;;2.77;67.36;100152.95;1750132;81;21205;-68
2022/11/23 04:08:44;;;;;;;21.07;11.90;;;;;;;2.75;67.42;100154.98;1751965;81;21544;-66
2022/11/23 04:11:12;;;;;;;19.00;10.68;;;;;;;2.76;67.45;100164.50;1747412;81;20959;-66
2022/11/23 04:13:41;;;;;;;17.52;10.60;;;;;;;2.77;67.26;100159.02;1768359;81;21053;-68
2022/11/23 04:16:09;;;;;;;17.32;9.85;;;;;;;2.75;66.99;100162.89;1768774;81;20990;-66
2022/11/23 04:18:37;;;;;;;19.25;10.85;;;;;;;2.68;66.77;100154.23;1767115;81;21889;-69
2022/11/23 04:21:05;;;;;;;14.58;8.48;;;;;;;2.65;66.74;100158.61;1769131;81;21509;-66
2022/11/23 04:23:33;;;;;;;20.40;11.93;;;;;;;2.69;66.80;100162.42;1744202;81;21527;-67
2022/11/23 04:26:01;;;;;;;18.52;11.08;;;;;;;2.69;66.78;100165.06;1760439;81;21045;-67
2022/11/23 04:28:29;;;;;;;22.82;11.88;;;;;;;2.72;66.83;100172.03;1739247;81;21077;-67
2022/11/23 04:30:57;;;;;;;18.65;11.30;;;;;;;2.77;66.84;100171.41;1758389;81;21650;-67
2022/11/23 04:33:26;;;;;;;18.42;10.82;;;;;;;2.78;66.86;100173.02;1767950;81;20947;-67
2022/11/23 04:35:54;;;;;;;19.65;11.10;;;;;;;2.79;66.79;100174.62;1738400;82;21045;-67
2022/11/23 04:38:21;;;;;;;18.82;10.95;;;;;;;2.75;66.64;100177.39;1756310;81;21002;-67
2022/11/23 04:40:48;;;;;;;19.02;10.68;;;;;;;2.71;66.61;100178.34;1768912;81;21485;-66
2022/11/23 04:43:15;;;;;;;22.00;12.70;;;;;;;2.73;66.71;100179.42;1753234;81;21509;-67
2022/11/23 04:45:44;;;;;;;17.75;10.32;;;;;;;2.77;66.77;100177.48;1768736;81;21442;-68
2022/11/23 04:48:15;;;;;;;19.62;11.20;;;;;;;2.82;66.77;100177.62;1760476;81;21086;-67
2022/11/23 04:50:43;;;;;;;19.85;11.05;;;;;;;2.87;66.78;100184.91;1759740;81;21080;-67
2022/11/23 04:53:10;;;;;;;17.40;11.00;;;;;;;2.88;66.77;100179.92;1768518;81;21555;-67
2022/11/23 04:55:38;;;;;;;18.00;10.72;;;;;;;2.85;66.70;100181.67;1768588;81;21117;-67
2022/11/23 04:58:06;;;;;;;18.07;10.65;;;;;;;2.82;66.75;100182.91;1747740;81;21014;-68
2022/11/23 05:00:34;;;;;;;18.35;11.22;;;;;;;2.80;66.84;100178.89;1754851;81;21469;-68
2022/11/23 05:03:02;;;;;;;17.32;9.88;;;;;;;2.76;66.87;100184.27;1769001;81;21449;-69
2022/11/23 05:05:30;;;;;;;19.50;11.45;;;;;;;2.72;66.88;100177.83;1767593;81;21053;-67
2022/11/23 05:07:58;;;;;;;19.02;10.82;;;;;;;2.68;67.04;100179.28;1769122;81;21247;-69
2022/11/23 05:10:28;;;;;;;19.10;10.80;;;;;;;2.69;67.08;100181.69;1767708;81;21117;-67
2022/11/23 05:12:57;;;;;;;18.32;10.75;;;;;;;2.68;67.06;100182.72;1768923;81;21512;-67
2022/11/23 05:15:23;;;;;;;18.98;10.40;;;;;;;2.70;67.09;100185.96;1766912;81;21564;-68
2022/11/23 05:17:50;;;;;;;18.48;11.30;;;;;;;2.75;67.08;100190.06;1748677;81;20990;-68
2022/11/23 05:20:20;;;;;;;20.27;11.18;;;;;;;2.78;67.07;100186.20;1760813;81;21232;-68
2022/11/23 05:22:48;;;;;;;20.48;11.80;;;;;;;2.80;66.95;100193.40;1760725;81;20991;-67
2022/11/23 05:25:17;;;;;;;18.70;10.05;;;;;;;2.75;67.03;100198.49;1737679;81;21058;-65
2022/11/23 05:27:46;;;;;;;18.02;9.93;;;;;;;2.68;66.96;100199.06;1741017;81;21006;-65
2022/11/23 05:30:14;;;;;;;21.07;12.07;;;;;;;2.63;66.99;100194.41;1768446;81;21006;-67
2022/11/23 05:32:41;;;;;;;18.17;11.08;;;;;;;2.62;67.01;100195.44;1764614;81;21113;-67
2022/11/23 05:35:10;;;;;;;19.73;11.08;;;;;;;2.66;67.10;100193.17;1749712;81;21429;-67
2022/11/23 05:37:38;;;;;;;16.95;10.30;;;;;;;2.67;67.08;100200.89;1768614;81;21049;-67
2022/11/23 05:40:09;;;;;;;16.32;9.90;;;;;;;2.66;67.08;100195.30;1768634;81;21002;-67
2022/11/23 05:42:37;;;;;;;15.90;9.35;;;;;;;2.67;67.04;100199.57;1752342;81;21022;-66
2022/11/23 05:45:15;;;;;;;15.40;9.63;;;;;;;2.65;66.97;100200.28;1739686;81;21148;-67
2022/11/23 05:47:45;;;;;;;15.93;9.65;;;;;;;2.64;66.94;100211.86;1767093;81;21445;-66
2022/11/23 05:50:14;;;;;;;16.02;9.00;;;;;;;2.64;66.70;100213.18;1715087;81;21516;-67
2022/11/23 05:52:43;;;;;;;14.13;8.98;;;;;;;2.56;66.86;100214.22;1752256;81;21014;-67
2022/11/23 05:55:10;;;;;;;15.80;9.30;;;;;;;2.51;66.83;100221.17;1750692;81;21574;-67
2022/11/23 06:09:25;;;;;;;13.50;8.20;;;;;;;2.84;66.51;100235.45;1807582;78;22004;-72
2022/11/23 06:11:52;;;;;;;13.70;8.23;;;;;;;2.78;66.39;100241.07;1748043;80;20982;-72
2022/11/23 06:14:20;;;;;;;10.45;6.53;;;;;;;2.76;66.44;100232.58;1787319;80;21276;-72
2022/11/23 06:16:46;;;;;;;13.18;7.67;;;;;;;2.79;66.36;100235.28;1789086;78;20931;-72
2022/11/23 06:19:24;;;;;;;11.80;7.70;;;;;;;2.78;66.37;100241.58;1716238;81;21071;-72
2022/11/23 06:21:51;;;;;;;13.03;8.03;;;;;;;2.75;66.33;100245.45;1783623;80;20987;-72
2022/11/23 06:24:19;;;;;;;11.18;6.90;;;;;;;2.75;66.29;100239.38;1791807;78;21120;-72
2022/11/23 06:26:50;;;;;;;11.03;6.78;;;;;;;2.84;65.89;100246.52;1758056;80;22150;-72
2022/11/23 06:29:19;;;;;;;12.35;7.28;;;;;;;2.75;65.65;100239.38;1767296;80;21054;-70
2022/11/23 06:31:46;;;;;;;12.20;7.17;;;;;;;2.71;65.91;100248.22;1757755;81;21003;-71
2022/11/23 06:34:13;;;;;;;11.40;6.97;;;;;;;2.72;65.80;100249.02;1753634;80;20983;-71
2022/11/23 06:36:40;;;;;;;10.15;6.58;;;;;;;2.74;65.82;100258.86;1790148;79;21176;-72
2022/11/23 06:39:07;;;;;;;10.72;6.78;;;;;;;2.78;65.67;100256.89;1761003;80;21548;-71
2022/11/23 06:41:34;;;;;;;11.20;6.75;;;;;;;2.78;65.62;100259.53;1793885;80;21549;-72
2022/11/23 06:44:02;;;;;;;11.45;7.05;;;;;;;2.80;65.39;100263.30;1794910;78;20951;-72
2022/11/23 06:46:31;;;;;;;12.13;7.92;;;;;;;2.90;65.21;100260.98;1783497;80;21035;-72
2022/11/23 06:48:57;;;;;;;11.75;7.10;;;;;;;2.86;64.81;100261.61;1758711;80;21430;-72
2022/11/23 06:51:24;;;;;;;10.68;6.85;;;;;;;2.70;65.01;100262.92;1790047;79;21781;-71
2022/11/23 06:53:52;;;;;;;11.20;7.42;;;;;;;2.70;65.24;100268.20;1776045;78;21006;-71
2022/11/23 06:56:18;;;;;;;12.58;7.62;;;;;;;2.68;65.29;100267.62;1748661;81;21031;-71
2022/11/23 06:58:48;;;;;;;9.30;5.80;;;;;;;2.71;65.33;100262.72;1755861;80;21169;-73
2022/11/23 07:01:16;;;;;;;10.28;6.80;;;;;;;2.81;65.17;100257.79;1728153;81;21055;-72
2022/11/23 07:03:48;;;;;;;;;;;;;;;2.70;65.14;100255.02;1728613;82;21323;-73
2022/11/23 07:06:40;;;;;;;8.65;5.53;;;;;;;2.60;65.01;100256.82;1748941;80;20210;-73
2022/11/23 07:09:10;;;;;;;10.68;6.28;;;;;;;2.53;65.07;100264.77;1748171;82;21058;-72
2022/11/23 07:11:48;;;;;;;9.90;5.75;;;;;;;2.53;65.23;100267.89;1719828;82;21118;-72
2022/11/23 07:14:16;;;;;;;11.08;6.75;;;;;;;2.58;65.23;100262.29;1728196;80;21121;-74
2022/11/23 07:16:45;;;;;;;12.53;7.42;;;;;;;2.66;65.31;100261.22;1728463;82;21344;-71
2022/11/23 07:19:12;;;;;;;13.88;7.62;;;;;;;2.78;65.29;100258.21;1730339;82;21507;-72
2022/11/23 07:21:40;;;;;;;13.60;8.00;;;;;;;2.91;65.15;100261.28;1729388;82;21140;-72
2022/11/23 07:24:07;;;;;;;11.63;6.97;;;;;;;3.00;65.08;100261.31;1730684;82;21050;-72
2022/11/23 07:26:35;;;;;;;13.78;7.70;;;;;;;3.06;64.90;100271.53;1730550;81;21585;-72
2022/11/23 07:29:03;;;;;;;14.55;8.78;;;;;;;2.99;64.44;100270.23;1701169;82;21239;-70
2022/11/23 07:31:31;;;;;;;14.53;8.60;;;;;;;2.81;64.63;100276.25;1730719;81;20987;-71
2022/11/23 07:33:59;;;;;;;14.18;8.75;;;;;;;2.72;64.94;100276.20;1731980;82;21067;-71
2022/11/23 07:36:26;;;;;;;13.18;8.18;;;;;;;2.69;65.06;100279.77;1732244;82;21028;-70
2022/11/23 07:38:54;;;;;;;16.37;9.55;;;;;;;2.59;65.19;100282.35;1730998;82;21014;-70
2022/11/23 07:41:21;;;;;;;15.28;9.00;;;;;;;2.50;65.32;100269.14;1732470;81;21125;-70
2022/11/23 07:43:54;;;;;;;13.88;9.08;;;;;;;2.51;65.56;100277.85;1726899;81;21110;-71
2022/11/23 07:46:21;;;;;;;13.38;8.13;;;;;;;2.57;65.66;100275.70;1732496;81;21086;-70
2022/11/23 07:48:48;;;;;;;15.85;9.50;;;;;;;2.61;65.67;100285.31;1731921;82;21082;-71
2022/11/23 07:51:18;;;;;;;15.80;9.60;;;;;;;2.54;65.63;100290.10;1732213;82;20963;-71
2022/11/23 07:53:46;;;;;;;14.87;9.10;;;;;;;2.57;65.82;100293.64;1731871;82;21313;-71
2022/11/23 07:56:13;;;;;;;15.65;9.08;;;;;;;2.67;65.91;100293.70;1724026;81;20980;-72
2022/11/23 07:58:40;;;;;;;16.37;10.43;;;;;;;2.68;65.87;100294.79;1702676;82;21035;-71
2022/11/23 08:01:08;;;;;;;18.12;10.72;;;;;;;2.65;65.90;100303.12;1703124;84;21119;-72
2022/11/23 08:03:36;;;;;;;18.00;9.95;;;;;;;2.57;65.92;100298.91;1703292;84;21625;-71
2022/11/23 08:06:06;;;;;;;17.60;9.23;;;;;;;2.55;66.06;100303.58;1705603;83;21422;-73
2022/11/23 08:08:34;;;;;;;15.25;9.13;;;;;;;2.58;66.15;100301.84;1676485;84;21051;-71
2022/11/23 08:11:05;;;;;;;18.17;10.48;;;;;;;2.57;66.23;100302.06;1674976;82;20987;-71
2022/11/23 08:13:33;;;;;;;17.90;10.45;;;;;;;2.52;66.27;100300.04;1714562;82;21098;-71
2022/11/23 08:16:01;;;;;;;19.17;10.60;;;;;;;2.53;66.45;100307.44;1732416;81;21549;-71
2022/11/23 08:18:29;;;;;;;18.92;10.80;;;;;;;2.69;66.49;100308.78;1731946;81;21249;-72
2022/11/23 08:20:59;;;;;;;15.13;8.88;;;;;;;2.74;66.65;100299.74;1732198;81;21070;-71
2022/11/23 08:23:27;;;;;;;19.95;11.30;;;;;;;2.89;66.70;100308.16;1732029;82;22094;-71
2022/11/23 08:25:54;;;;;;;16.62;9.88;;;;;;;2.88;66.33;100315.78;1732237;81;20991;-73
2022/11/23 08:28:22;;;;;;;18.52;10.98;;;;;;;2.85;66.29;100309.60;1732072;81;21054;-71
2022/11/23 08:30:49;;;;;;;19.27;11.18;;;;;;;2.80;66.27;100308.13;1731326;81;21075;-71
2022/11/23 08:33:16;;;;;;;21.10;12.43;;;;;;;2.88;66.31;100311.02;1731777;81;21058;-72
2022/11/23 08:35:45;;;;;;;19.45;11.15;;;;;;;2.78;66.29;100304.37;1732191;81;21007;-71
2022/11/23 08:38:14;;;;;;;18.80;11.03;;;;;;;2.75;66.46;100310.06;1731976;81;21066;-72
2022/11/23 08:40:42;;;;;;;20.27;11.78;;;;;;;2.74;66.47;100299.23;1732259;81;21137;-71
2022/11/23 08:43:09;;;;;;;18.62;11.65;;;;;;;2.77;66.60;100299.31;1732045;82;21258;-71
2022/11/23 08:45:40;;;;;;;21.05;12.35;;;;;;;2.85;66.65;100296.41;1732134;81;21063;-71
2022/11/23 08:48:07;;;;;;;19.95;10.32;;;;;;;2.88;66.63;100295.99;1730858;81;21074;-72
2022/11/23 08:50:36;;;;;;;20.68;12.30;;;;;;;2.91;66.56;100300.05;1732155;81;21521;-71
2022/11/23 08:53:03;;;;;;;20.48;11.25;;;;;;;2.89;66.47;100308.16;1731873;81;21086;-71
2022/11/23 08:55:30;;;;;;;18.45;10.30;;;;;;;3.03;66.25;100293.88;1732349;81;21127;-73
2022/11/23 08:57:57;;;;;;;20.70;11.03;;;;;;;2.97;66.44;100293.92;1731875;82;21109;-71
2022/11/23 09:00:25;;;;;;;17.92;10.65;;;;;;;2.92;66.33;100289.27;1732349;81;20979;-72
2022/11/23 09:02:53;;;;;;;16.67;10.70;;;;;;;2.86;66.33;100296.70;1731829;82;21081;-72
2022/11/23 09:05:20;;;;;;;15.95;9.88;;;;;;;2.91;66.49;100296.09;1709743;81;20991;-73
2022/11/23 09:07:47;;;;;;;19.55;11.45;;;;;;;2.99;66.49;100297.94;1703034;84;21191;-70
2022/11/23 09:10:15;;;;;;;20.35;10.43;;;;;;;3.07;66.48;100286.85;1702929;83;21031;-72
2022/11/23 09:12:44;;;;;;;16.93;9.65;;;;;;;3.26;66.12;100296.45;1702466;82;20970;-72
2022/11/23 09:15:11;;;;;;;19.52;10.40;;;;;;;3.21;66.06;100282.56;1703022;82;21510;-72
2022/11/23 09:17:40;;;;;;;17.42;10.35;;;;;;;3.27;66.10;100278.27;1702732;83;20988;-72
2022/11/23 09:20:09;;;;;;;16.17;9.63;;;;;;;3.38;65.96;100278.88;1702866;84;21133;-70
2022/11/23 09:22:37;;;;;;;17.90;10.38;;;;;;;3.31;65.06;100279.44;1703563;82;21150;-72
2022/11/23 09:25:07;;;;;;;17.35;10.20;;;;;;;3.28;64.84;100275.91;1702768;84;21078;-72
2022/11/23 09:27:34;;;;;;;17.10;9.83;;;;;;;3.35;64.61;100286.42;1702712;84;21019;-71
2022/11/23 09:30:02;;;;;;;15.93;9.38;;;;;;;3.22;64.74;100278.09;1706417;83;20963;-70
2022/11/23 09:32:31;;;;;;;18.32;9.95;;;;;;;3.22;64.67;100282.05;1706271;84;21101;-70
2022/11/23 09:34:59;;;;;;;19.32;11.05;;;;;;;3.05;64.24;100274.66;1654064;84;21050;-71
2022/11/23 09:37:26;;;;;;;18.60;11.90;;;;;;;2.93;64.50;100268.48;1702936;82;20991;-72
2022/11/23 09:39:55;;;;;;;19.80;11.55;;;;;;;2.88;64.58;100261.70;1732026;81;21521;-70
2022/11/23 09:42:39;;;;;;;16.90;9.90;;;;;;;2.93;64.80;100261.05;1731956;81;21098;-71
2022/11/23 09:45:21;;;;;;;19.23;11.25;;;;;;;3.03;64.88;100259.58;1710997;82;21340;-72
2022/11/23 09:48:40;;;;;;;20.08;11.38;;;;;;;3.13;64.71;100257.78;1709936;81;21126;-72
2022/11/23 09:51:20;;;;;;;18.35;10.98;;;;;;;3.24;64.68;100257.58;1703176;82;21516;-72
2022/11/23 09:54:00;;;;;;;20.02;12.55;;;;;;;3.35;64.58;100252.91;1758163;80;26831;-71
2022/11/23 09:56:33;;;;;;;23.00;13.88;;;;;;;3.37;64.43;100242.95;1696430;82;20980;-72
2022/11/23 09:59:23;;;;;;;23.10;13.80;;;;;;;3.38;64.27;100249.03;1702405;82;21554;-73
2022/11/23 10:01:51;;;;;;;25.10;13.93;;;;;;;3.36;64.20;100253.22;1702660;82;21541;-72
2022/11/23 10:04:19;;;;;;;23.20;13.13;;;;;;;3.36;64.18;100248.45;1702700;82;21062;-73
2022/11/23 10:06:51;;;;;;;18.73;11.97;;;;;;;3.31;64.22;100243.81;1702959;82;21003;-72
2022/11/23 10:09:39;;;;;;;24.60;13.43;;;;;;;3.33;64.22;100248.89;1702788;84;21070;-71
2022/11/23 10:12:23;;;;;;;25.68;15.28;;;;;;;3.31;64.24;100246.45;1595475;88;21113;-72
2022/11/23 10:15:23;;;;;;;22.32;13.25;;;;;;;3.26;64.27;100250.27;1706345;81;21149;-71
2022/11/23 18:07:03;;;;;;;78.77;37.43;;;;;;;1.93;80.25;100256.80;1749439;80;22884;-73
2022/11/23 18:09:30;;;;;;;80.80;37.25;;;;;;;2.07;79.06;100256.56;1755308;80;21113;-73
2022/11/23 18:11:58;;;;;;;70.10;35.10;;;;;;;2.17;78.17;100251.33;1538340;80;9999898;-74
2022/11/23 18:14:27;;;;;;;55.85;30.05;;;;;;;2.16;77.04;100249.21;1605935;87;21168;-73
2022/11/23 18:16:55;;;;;;;58.17;29.35;;;;;;;2.00;76.72;100247.04;1521578;86;10000460;-73
2022/11/23 18:19:22;;;;;;;58.20;29.17;;;;;;;1.98;76.44;100241.99;1635284;86;21526;-73
2022/11/23 18:21:49;;;;;;;51.53;27.58;;;;;;;1.98;76.12;100247.27;1634744;87;21017;-73
2022/11/23 18:24:15;;;;;;;52.95;27.30;;;;;;;2.01;75.80;100246.84;1634679;87;21136;-73
2022/11/23 18:26:42;;;;;;;40.65;23.22;;;;;;;2.03;75.45;100244.80;1634418;87;21095;-73
2022/11/23 18:29:09;;;;;;;39.08;21.20;;;;;;;2.02;75.03;100248.45;1635334;86;21101;-73
2022/11/23 18:31:37;;;;;;;34.50;19.67;;;;;;;1.97;74.58;100247.45;1520427;86;10000420;-74
2022/11/23 18:34:04;;;;;;;36.57;20.47;;;;;;;1.93;74.30;100256.28;1521886;86;10000295;-73
2022/11/23 18:36:30;;;;;;;33.50;19.98;;;;;;;1.93;74.22;100255.48;1634849;87;21487;-73
2022/11/23 18:38:57;;;;;;;32.35;18.52;;;;;;;1.91;73.84;100250.43;1634745;87;20965;-74
2022/11/23 18:41:23;;;;;;;33.60;18.67;;;;;;;1.90;73.70;100246.67;1634352;87;21068;-73
2022/11/23 18:43:50;;;;;;;31.10;18.73;;;;;;;1.91;73.58;100246.48;1634325;86;21635;-73
2022/11/23 18:46:20;;;;;;;31.68;18.45;;;;;;;1.92;73.41;100250.72;1634309;87;21068;-75
2022/11/23 18:48:48;;;;;;;30.62;17.85;;;;;;;2.03;72.96;100243.99;1634233;87;21132;-74
2022/11/23 18:51:15;;;;;;;33.60;18.92;;;;;;;2.07;72.71;100238.12;1635478;87;21155;-75
2022/11/23 18:53:41;;;;;;;32.45;18.27;;;;;;;2.10;72.50;100238.98;1634893;87;21670;-75
2022/11/23 18:56:08;;;;;;;33.18;19.00;;;;;;;2.10;72.30;100230.28;1634142;87;21120;-75
2022/11/23 18:58:40;;;;;;;33.33;19.65;;;;;;;2.03;72.40;100222.41;1634687;87;21116;-74
2022/11/23 19:01:10;;;;;;;35.52;19.73;;;;;;;1.99;72.57;100218.58;1635023;87;22118;-73
2022/11/23 19:03:39;;;;;;;34.18;20.12;;;;;;;1.99;72.63;100218.58;1635038;87;21085;-73
2022/11/23 19:06:05;;;;;;;33.73;19.65;;;;;;;2.01;72.60;100211.29;1633828;87;21403;-74
2022/11/23 19:08:35;;;;;;;36.28;20.85;;;;;;;2.02;72.58;100220.80;1634034;87;21162;-74
2022/11/23 19:11:06;;;;;;;37.05;22.25;;;;;;;2.03;72.46;100223.72;1589825;87;21110;-74
2022/11/23 19:13:37;;;;;;;36.85;21.20;;;;;;;2.02;72.31;100223.43;1635322;87;20918;-75
2022/11/23 19:16:12;;;;;;;34.78;21.07;;;;;;;1.98;72.35;100224.88;1632485;87;21088;-74
2022/11/23 19:18:39;;;;;;;36.17;21.07;;;;;;;2.01;72.35;100224.97;1634841;87;21021;-75
2022/11/23 19:21:17;;;;;;;38.83;23.00;;;;;;;2.05;72.34;100216.95;1634135;87;21101;-74
2022/11/23 19:23:45;;;;;;;40.67;22.58;;;;;;;2.06;72.25;100215.92;1634073;87;21132;-74
2022/11/23 19:26:12;;;;;;;38.73;22.40;;;;;;;2.10;72.05;100210.01;1634367;87;21100;-74
2022/11/23 19:28:43;;;;;;;39.25;22.10;;;;;;;2.07;72.05;100218.84;1634334;87;21112;-74
2022/11/23 19:31:19;;;;;;;41.23;22.95;;;;;;;2.07;72.06;100215.72;1633598;87;21072;-72
2022/11/23 19:33:47;;;;;;;41.73;23.00;;;;;;;2.08;72.09;100220.48;1633139;86;21160;-72
2022/11/23 19:36:16;;;;;;;41.50;23.50;;;;;;;2.10;72.11;100225.81;1635700;86;21084;-72
2022/11/23 19:38:43;;;;;;;36.13;20.25;;;;;;;2.11;72.08;100218.75;1635968;87;21149;-74
2022/11/23 19:41:11;;;;;;;38.88;21.60;;;;;;;2.11;72.09;100218.23;1635535;87;22186;-73
2022/11/23 19:43:37;;;;;;;37.50;21.07;;;;;;;2.11;72.04;100218.23;1635936;87;21022;-74
2022/11/23 19:46:05;;;;;;;42.30;23.65;;;;;;;2.11;72.08;100218.23;1621203;86;21207;-74